Time;durP1;ratioP1;P1;durP2;ratioP2;P2;SDS_P1;SDS_P2;PMS_P1;PMS_P2;Temp;Humidity;BMP_temperature;BMP_pressure;BME280_temperature;BME280_humidity;BME280_pressure;Samples;Min_cycle;Max_cycle;Signal;HPM_P1;HPM_P2
2021/07/09 00:01:58;;;;;;;5.45;2.28;;;23.10;55.90;;;;;;5034100;28;20037;-62
2021/07/09 00:04:24;;;;;;;5.93;2.47;;;23.10;56.10;;;;;;5033864;28;20041;-62
2021/07/09 00:06:50;;;;;;;4.70;2.40;;;23.10;56.00;;;;;;5065760;28;20036;-62
2021/07/09 00:09:16;;;;;;;5.55;2.40;;;23.10;56.60;;;;;;5066018;28;20029;-62
2021/07/09 00:11:43;;;;;;;5.20;2.22;;;23.10;56.40;;;;;;5033696;28;20025;-63
2021/07/09 00:14:09;;;;;;;5.70;2.40;;;23.10;56.50;;;;;;5033840;28;20036;-62
2021/07/09 00:16:36;;;;;;;4.53;2.35;;;23.10;56.70;;;;;;5033642;28;20464;-63
2021/07/09 00:19:04;;;;;;;4.93;2.50;;;23.10;56.70;;;;;;5033702;28;20113;-62
2021/07/09 00:21:31;;;;;;;4.60;2.35;;;23.00;56.60;;;;;;5033992;28;20451;-63
2021/07/09 00:23:57;;;;;;;4.53;2.28;;;23.00;56.70;;;;;;5032651;28;20053;-62
2021/07/09 00:26:22;;;;;;;4.00;2.03;;;23.00;56.60;;;;;;5032025;28;20392;-63
2021/07/09 00:28:48;;;;;;;4.50;2.28;;;23.00;56.60;;;;;;5032350;28;20028;-63
2021/07/09 00:31:13;;;;;;;5.13;2.40;;;22.90;56.70;;;;;;5031820;28;20018;-63
2021/07/09 00:33:39;;;;;;;4.57;2.40;;;22.90;57.00;;;;;;5033223;28;20021;-63
2021/07/09 00:36:05;;;;;;;5.85;2.60;;;22.80;57.30;;;;;;5033438;28;20534;-63
2021/07/09 00:38:30;;;;;;;4.97;2.30;;;22.70;57.50;;;;;;5033403;28;20044;-62
2021/07/09 00:40:57;;;;;;;4.03;2.20;;;22.70;57.40;;;;;;5033353;28;20465;-62
2021/07/09 00:43:22;;;;;;;4.20;2.20;;;22.70;57.50;;;;;;5033249;28;20022;-63
2021/07/09 00:45:48;;;;;;;4.95;2.42;;;22.70;57.50;;;;;;5031753;28;20033;-62
2021/07/09 00:48:14;;;;;;;5.18;2.30;;;22.60;57.50;;;;;;5033415;28;20109;-62
2021/07/09 00:50:39;;;;;;;4.53;2.08;;;22.60;57.50;;;;;;5033063;28;20056;-62
2021/07/09 00:53:06;;;;;;;4.10;2.10;;;22.60;57.50;;;;;;5033253;28;20129;-62
2021/07/09 00:55:31;;;;;;;3.92;2.10;;;22.60;57.50;;;;;;5032043;28;20033;-62
2021/07/09 00:58:00;;;;;;;5.55;2.85;;;22.60;57.60;;;;;;5031688;28;20033;-62
2021/07/09 01:00:26;;;;;;;5.30;2.63;;;22.50;57.80;;;;;;5032017;28;20068;-62
2021/07/09 01:02:51;;;;;;;4.40;2.30;;;22.60;57.90;;;;;;5031687;28;20469;-62
2021/07/09 01:05:17;;;;;;;4.50;2.30;;;22.60;58.00;;;;;;5032614;28;20083;-62
2021/07/09 01:07:43;;;;;;;4.80;2.60;;;22.60;58.00;;;;;;5031623;28;20076;-62
2021/07/09 01:10:13;;;;;;;4.88;2.40;;;22.60;58.10;;;;;;5032687;28;20021;-62
2021/07/09 01:12:39;;;;;;;3.90;2.35;;;22.50;58.00;;;;;;5031470;28;20131;-62
2021/07/09 01:15:06;;;;;;;3.85;2.10;;;22.50;58.00;;;;;;5031537;28;20029;-62
2021/07/09 01:17:31;;;;;;;4.03;2.10;;;22.60;58.00;;;;;;5032481;28;20472;-62
2021/07/09 01:19:57;;;;;;;4.32;2.10;;;22.50;57.90;;;;;;5031117;28;20041;-62
2021/07/09 01:22:24;;;;;;;4.25;2.20;;;22.50;58.00;;;;;;5064301;28;20123;-62
2021/07/09 01:24:49;;;;;;;4.38;2.40;;;22.50;58.00;;;;;;5064569;28;20376;-62
2021/07/09 01:27:16;;;;;;;4.55;2.30;;;22.40;58.10;;;;;;5064267;28;20030;-62
2021/07/09 01:29:41;;;;;;;5.78;2.33;;;22.40;58.00;;;;;;5064017;28;20025;-62
2021/07/09 01:32:07;;;;;;;4.25;2.20;;;22.50;58.20;;;;;;5047705;28;20028;-63
2021/07/09 01:34:32;;;;;;;4.53;2.55;;;22.50;58.30;;;;;;5032149;28;20030;-63
2021/07/09 01:37:12;;;;;;;5.65;2.80;;;22.40;58.50;;;;;;5032096;28;20500;-62
2021/07/09 01:39:38;;;;;;;5.90;2.70;;;22.40;59.20;;;;;;5032501;28;20053;-63
2021/07/09 01:42:03;;;;;;;4.72;2.50;;;22.40;58.70;;;;;;5032080;28;20049;-62
2021/07/09 01:44:29;;;;;;;4.93;2.47;;;22.40;58.90;;;;;;5031150;28;20035;-62
2021/07/09 01:46:55;;;;;;;4.82;3.10;;;22.40;58.90;;;;;;5031754;28;20385;-62
2021/07/09 01:49:21;;;;;;;5.38;3.10;;;22.40;59.20;;;;;;5031964;28;20022;-62
2021/07/09 01:51:46;;;;;;;4.82;2.70;;;22.40;59.30;;;;;;5063935;28;20036;-63
2021/07/09 01:54:12;;;;;;;4.90;2.92;;;22.30;59.30;;;;;;5031910;28;20029;-63
2021/07/09 01:56:38;;;;;;;4.90;2.65;;;22.30;59.40;;;;;;5031943;28;20045;-62
2021/07/09 01:59:03;;;;;;;5.20;2.42;;;22.30;59.40;;;;;;5032116;28;20044;-63
2021/07/09 02:01:29;;;;;;;5.85;2.72;;;22.30;59.50;;;;;;5063720;28;20091;-63
2021/07/09 02:03:55;;;;;;;5.70;2.90;;;22.30;59.80;;;;;;5031513;28;20121;-63
2021/07/09 02:06:20;;;;;;;5.97;2.67;;;22.30;59.90;;;;;;5031625;28;20033;-63
2021/07/09 02:08:46;;;;;;;4.95;2.58;;;22.40;60.10;;;;;;5030432;28;20430;-61
2021/07/09 02:11:11;;;;;;;4.70;2.42;;;22.40;60.10;;;;;;5031790;28;20103;-63
2021/07/09 02:13:37;;;;;;;4.80;2.67;;;22.40;60.10;;;;;;5030420;28;20021;-61
2021/07/09 02:16:03;;;;;;;4.70;2.50;;;22.30;60.30;;;;;;5031814;28;20018;-61
2021/07/09 02:18:28;;;;;;;4.60;2.78;;;22.30;60.30;;;;;;5032008;28;20087;-62
2021/07/09 02:20:54;;;;;;;4.53;2.50;;;22.30;60.40;;;;;;5031544;28;20032;-62
2021/07/09 02:23:20;;;;;;;4.90;2.80;;;22.30;60.80;;;;;;5030180;28;20033;-63
2021/07/09 02:25:45;;;;;;;4.95;3.08;;;22.30;61.20;;;;;;5030214;28;20108;-63
2021/07/09 02:28:11;;;;;;;4.55;2.90;;;22.40;61.30;;;;;;5031491;28;20472;-63
2021/07/09 02:30:37;;;;;;;5.30;3.10;;;22.40;61.10;;;;;;5031670;28;20084;-63
2021/07/09 02:33:03;;;;;;;5.13;3.03;;;22.40;61.30;;;;;;5030207;28;20021;-63
2021/07/09 02:35:31;;;;;;;4.95;2.83;;;22.40;61.10;;;;;;5031408;28;20091;-63
2021/07/09 02:37:56;;;;;;;4.50;2.47;;;22.40;60.90;;;;;;5030182;28;20075;-62
2021/07/09 02:40:24;;;;;;;5.07;2.97;;;22.50;60.70;;;;;;5031465;28;20488;-62
2021/07/09 02:42:51;;;;;;;5.60;2.75;;;22.50;60.90;;;;;;5031536;28;20052;-63
2021/07/09 02:45:17;;;;;;;4.63;2.50;;;22.50;60.60;;;;;;5029957;28;20024;-63
2021/07/09 02:47:43;;;;;;;5.38;2.50;;;22.50;60.30;;;;;;5031273;28;20025;-62
2021/07/09 02:50:13;;;;;;;4.60;2.78;;;22.50;60.30;;;;;;5031318;28;20490;-62
2021/07/09 02:52:38;;;;;;;5.47;2.67;;;22.50;60.40;;;;;;5031595;28;20434;-63
2021/07/09 02:55:05;;;;;;;5.25;2.67;;;22.60;60.30;;;;;;5032336;28;20053;-63
2021/07/09 02:57:30;;;;;;;5.57;2.88;;;22.60;60.10;;;;;;5035313;28;20032;-63
2021/07/09 02:59:56;;;;;;;4.65;2.47;;;22.70;60.10;;;;;;5033906;28;20029;-63
2021/07/09 03:02:22;;;;;;;3.88;2.25;;;22.70;60.00;;;;;;5035062;28;20026;-62
2021/07/09 03:04:47;;;;;;;4.63;2.30;;;22.70;59.80;;;;;;5033689;28;20049;-63
2021/07/09 03:07:13;;;;;;;4.00;2.10;;;22.70;59.60;;;;;;5034810;28;20112;-63
2021/07/09 03:09:39;;;;;;;6.40;2.45;;;22.80;59.60;;;;;;5035208;28;20447;-63
2021/07/09 03:12:05;;;;;;;4.90;2.47;;;22.80;59.60;;;;;;5034989;28;20025;-62
2021/07/09 03:14:30;;;;;;;4.68;2.55;;;22.80;59.60;;;;;;5033819;28;20116;-63
2021/07/09 03:16:56;;;;;;;4.53;2.30;;;22.80;59.60;;;;;;5035044;28;20091;-62
2021/07/09 03:19:21;;;;;;;4.30;2.15;;;22.90;59.50;;;;;;5034647;28;20396;-62
2021/07/09 03:21:47;;;;;;;5.35;2.60;;;22.90;59.50;;;;;;5034680;28;20025;-62
2021/07/09 03:24:12;;;;;;;4.75;2.70;;;23.00;59.60;;;;;;5034768;28;20482;-62
2021/07/09 03:26:38;;;;;;;4.95;2.83;;;23.10;59.60;;;;;;5034807;28;20476;-62
2021/07/09 03:29:04;;;;;;;5.97;3.05;;;23.10;59.60;;;;;;5034449;28;20026;-63
2021/07/09 03:31:31;;;;;;;7.57;5.40;;;23.20;59.50;;;;;;5034526;28;20029;-63
2021/07/09 03:33:57;;;;;;;7.00;5.15;;;23.30;59.50;;;;;;5066491;28;20491;-62
2021/07/09 03:36:22;;;;;;;7.60;5.30;;;23.30;59.30;;;;;;5034451;28;20021;-63
2021/07/09 03:38:57;;;;;;;5.72;3.95;;;23.40;59.40;;;;;;5066578;28;20025;-62
2021/07/09 03:41:24;;;;;;;5.20;3.25;;;23.50;59.30;;;;;;5034229;28;20416;-62
2021/07/09 03:43:50;;;;;;;5.85;3.78;;;23.50;59.00;;;;;;5066127;28;20172;-63
2021/07/09 03:46:15;;;;;;;9.48;6.35;;;23.50;58.90;;;;;;5034109;28;20105;-62
2021/07/09 03:48:41;;;;;;;6.90;4.20;;;23.60;59.00;;;;;;5049408;28;20017;-63
2021/07/09 03:51:07;;;;;;;6.88;4.82;;;23.60;58.80;;;;;;5034023;28;20022;-62
2021/07/09 03:53:32;;;;;;;7.18;4.60;;;23.60;58.90;;;;;;5034072;28;20084;-62
2021/07/09 03:55:58;;;;;;;7.68;4.57;;;23.70;59.10;;;;;;5033896;28;20481;-62
2021/07/09 03:58:24;;;;;;;5.15;3.08;;;23.70;59.20;;;;;;5034122;28;20026;-62
2021/07/09 04:00:50;;;;;;;5.43;3.33;;;23.80;59.30;;;;;;5034030;28;20485;-62
2021/07/09 04:03:16;;;;;;;5.07;3.00;;;23.70;59.00;;;;;;5033882;28;20027;-61
2021/07/09 04:05:41;;;;;;;5.18;3.20;;;23.80;59.10;;;;;;5033712;28;20038;-62
2021/07/09 04:08:07;;;;;;;5.60;3.30;;;23.90;59.00;;;;;;5032874;28;20033;-62
2021/07/09 04:10:33;;;;;;;5.75;3.08;;;23.90;59.00;;;;;;5033579;28;20053;-64
2021/07/09 04:12:58;;;;;;;5.10;3.22;;;24.00;59.00;;;;;;5033610;28;20022;-64
2021/07/09 04:15:24;;;;;;;6.07;3.08;;;24.00;58.90;;;;;;5065971;28;20299;-62
2021/07/09 04:17:49;;;;;;;4.60;2.60;;;24.00;58.80;;;;;;5033776;28;20072;-63
2021/07/09 04:20:15;;;;;;;5.03;2.72;;;24.10;58.70;;;;;;5032234;28;20026;-63
2021/07/09 04:22:41;;;;;;;5.68;3.00;;;24.10;58.60;;;;;;5033544;28;20079;-63
2021/07/09 04:25:08;;;;;;;5.82;2.83;;;24.20;58.60;;;;;;5033490;28;20034;-63
2021/07/09 04:27:35;;;;;;;4.70;2.60;;;24.20;58.50;;;;;;5032097;28;20037;-63
2021/07/09 04:30:01;;;;;;;4.97;2.88;;;24.20;58.40;;;;;;5033483;28;20018;-62
2021/07/09 04:32:26;;;;;;;4.90;2.80;;;24.30;58.30;;;;;;5032949;28;20044;-63
2021/07/09 04:34:52;;;;;;;4.70;2.75;;;24.30;58.20;;;;;;5033429;28;20052;-62
2021/07/09 04:37:18;;;;;;;4.70;2.55;;;24.30;58.10;;;;;;5033144;28;20036;-62
2021/07/09 04:39:43;;;;;;;4.20;2.50;;;24.30;58.00;;;;;;5032954;28;20036;-64
2021/07/09 04:42:09;;;;;;;5.03;2.58;;;24.40;57.90;;;;;;5032135;28;20179;-63
2021/07/09 04:44:35;;;;;;;5.80;2.72;;;24.40;58.50;;;;;;5033171;28;20021;-63
2021/07/09 04:47:00;;;;;;;5.05;2.83;;;24.40;57.70;;;;;;5031814;28;20032;-62
2021/07/09 04:49:26;;;;;;;5.20;2.78;;;24.50;57.70;;;;;;5032982;28;20022;-63
2021/07/09 04:51:53;;;;;;;5.53;2.58;;;24.50;57.70;;;;;;5031576;28;20021;-62
2021/07/09 04:54:18;;;;;;;4.80;2.50;;;24.50;57.60;;;;;;5033098;28;20474;-62
2021/07/09 04:56:44;;;;;;;5.50;2.95;;;24.60;57.50;;;;;;5032905;28;20091;-63
2021/07/09 04:59:10;;;;;;;5.25;3.05;;;24.60;57.40;;;;;;5032900;28;20422;-64
2021/07/09 05:01:36;;;;;;;4.95;2.83;;;24.70;57.40;;;;;;5033021;28;20034;-63
2021/07/09 05:04:01;;;;;;;5.22;2.83;;;24.70;57.30;;;;;;5032711;28;20023;-63
2021/07/09 05:06:27;;;;;;;6.68;2.95;;;24.70;57.20;;;;;;5031467;28;20507;-63
2021/07/09 05:08:53;;;;;;;5.07;3.00;;;24.80;57.10;;;;;;5032649;28;20392;-62
2021/07/09 05:11:18;;;;;;;4.88;2.88;;;24.80;57.00;;;;;;5032840;28;20116;-62
2021/07/09 05:13:45;;;;;;;4.72;2.50;;;24.80;57.00;;;;;;5032568;28;20026;-62
2021/07/09 05:16:11;;;;;;;5.40;2.70;;;24.80;57.00;;;;;;5032458;28;20013;-62
2021/07/09 05:18:36;;;;;;;4.30;2.67;;;24.80;56.90;;;;;;5030945;28;20021;-63
2021/07/09 05:21:02;;;;;;;4.72;2.55;;;24.80;56.90;;;;;;5032497;28;20079;-63
2021/07/09 05:23:27;;;;;;;5.03;2.70;;;24.90;57.00;;;;;;5032062;28;20028;-61
2021/07/09 05:25:54;;;;;;;5.78;2.35;;;25.00;56.90;;;;;;5031934;28;20028;-63
2021/07/09 05:28:20;;;;;;;5.28;2.70;;;25.00;56.80;;;;;;5032352;28;20075;-62
2021/07/09 05:30:46;;;;;;;5.28;3.00;;;25.00;57.40;;;;;;5032291;28;20048;-62
2021/07/09 05:33:12;;;;;;;4.63;3.00;;;25.10;56.80;;;;;;5032185;28;20457;-63
2021/07/09 05:35:37;;;;;;;4.70;2.83;;;25.20;56.80;;;;;;5064063;28;20384;-63
2021/07/09 05:38:04;;;;;;;5.57;2.90;;;25.20;56.80;;;;;;5031989;28;20018;-63
2021/07/09 05:40:29;;;;;;;4.53;2.58;;;25.20;56.60;;;;;;5032191;28;20078;-63
2021/07/09 05:42:55;;;;;;;4.95;2.55;;;25.30;56.50;;;;;;5032087;28;20112;-64
2021/07/09 05:45:20;;;;;;;4.43;2.20;;;25.30;56.30;;;;;;5032221;28;20037;-62
2021/07/09 05:47:46;;;;;;;4.90;2.53;;;25.40;56.20;;;;;;5063694;28;20061;-62
2021/07/09 05:50:12;;;;;;;5.25;2.70;;;25.50;56.10;;;;;;5032129;28;20526;-62
2021/07/09 05:52:37;;;;;;;5.65;2.97;;;25.60;56.10;;;;;;5031968;28;20152;-62
2021/07/09 05:55:04;;;;;;;5.97;3.20;;;25.70;55.80;;;;;;5031937;28;20159;-64
2021/07/09 05:57:30;;;;;;;5.45;2.88;;;25.70;55.80;;;;;;5031112;28;20029;-64
2021/07/09 05:59:55;;;;;;;8.80;3.10;;;25.70;55.70;;;;;;5031084;28;20033;-64
2021/07/09 06:02:21;;;;;;;6.43;3.60;;;25.80;55.70;;;;;;5030877;28;20531;-63
2021/07/09 06:04:46;;;;;;;6.13;3.40;;;25.80;55.50;;;;;;5030249;28;20068;-64
2021/07/09 06:07:12;;;;;;;6.72;2.92;;;25.80;55.50;;;;;;5030894;28;20106;-63
2021/07/09 06:09:38;;;;;;;7.07;3.13;;;25.90;55.50;;;;;;5031026;28;20033;-64
2021/07/09 06:12:03;;;;;;;4.70;2.83;;;25.90;55.50;;;;;;5030836;28;20026;-64
2021/07/09 06:14:29;;;;;;;5.50;3.30;;;26.00;55.40;;;;;;5029728;28;20117;-64
2021/07/09 06:16:55;;;;;;;5.18;3.10;;;26.00;55.40;;;;;;5029608;28;20030;-64
2021/07/09 06:19:20;;;;;;;5.15;2.85;;;26.10;55.20;;;;;;5029763;28;20147;-63
2021/07/09 06:21:46;;;;;;;4.47;2.80;;;26.10;54.80;;;;;;5030746;28;20476;-63
2021/07/09 06:24:12;;;;;;;4.55;2.45;;;26.20;54.80;;;;;;5030936;28;20112;-62
2021/07/09 06:26:37;;;;;;;5.47;2.80;;;26.20;54.70;;;;;;5030678;28;20083;-63
2021/07/09 06:29:03;;;;;;;6.20;2.95;;;26.30;54.60;;;;;;5029191;28;20021;-64
2021/07/09 06:31:29;;;;;;;5.22;3.10;;;26.40;54.50;;;;;;5030808;28;20025;-64
2021/07/09 06:33:54;;;;;;;5.20;3.20;;;26.50;54.10;;;;;;5030569;28;20045;-63
2021/07/09 06:36:20;;;;;;;6.18;3.15;;;26.60;53.70;;;;;;5031081;28;20032;-64
2021/07/09 06:38:46;;;;;;;8.25;3.45;;;26.70;53.50;;;;;;5028970;28;20032;-64
2021/07/09 06:41:12;;;;;;;5.10;2.92;;;26.80;53.30;;;;;;5029112;28;20488;-64
2021/07/09 06:43:37;;;;;;;6.00;3.17;;;26.80;53.20;;;;;;5029033;28;20037;-64
2021/07/09 06:46:03;;;;;;;4.95;2.90;;;26.90;53.00;;;;;;5030879;28;20021;-64
2021/07/09 06:48:28;;;;;;;4.97;3.20;;;27.10;53.00;;;;;;5012683;28;20017;-64
2021/07/09 06:50:54;;;;;;;5.35;3.10;;;27.20;52.60;;;;;;5028985;28;20079;-64
2021/07/09 06:53:20;;;;;;;4.90;3.00;;;27.30;52.30;;;;;;5030790;28;20029;-64
2021/07/09 06:55:45;;;;;;;5.68;3.15;;;27.40;51.90;;;;;;5030099;28;20064;-64
2021/07/09 06:58:11;;;;;;;5.05;2.90;;;27.50;51.10;;;;;;5030132;28;20437;-62
2021/07/09 07:00:37;;;;;;;5.57;2.95;;;27.50;50.90;;;;;;5031023;28;20029;-64
2021/07/09 07:03:04;;;;;;;6.03;2.80;;;27.70;50.60;;;;;;5030084;28;20472;-63
2021/07/09 07:05:30;;;;;;;5.05;3.00;;;27.80;50.10;;;;;;5030374;28;20634;-63
2021/07/09 07:07:55;;;;;;;5.65;2.75;;;27.80;49.90;;;;;;5030869;28;20045;-64
2021/07/09 07:10:21;;;;;;;4.93;3.20;;;27.90;49.80;;;;;;5030855;28;20159;-64
2021/07/09 07:12:47;;;;;;;5.80;3.45;;;28.00;49.50;;;;;;5030041;28;20362;-64
2021/07/09 07:15:13;;;;;;;5.50;3.35;;;28.10;49.60;;;;;;5030058;28;20030;-64
2021/07/09 07:17:39;;;;;;;5.10;3.30;;;28.10;49.60;;;;;;5030792;28;20022;-64
2021/07/09 07:20:05;;;;;;;5.38;3.05;;;28.20;49.70;;;;;;5030674;28;20080;-64
2021/07/09 07:22:31;;;;;;;6.03;3.60;;;28.30;49.60;;;;;;5030700;28;20060;-64
2021/07/09 07:24:56;;;;;;;5.78;3.70;;;28.30;49.40;;;;;;5030501;28;20056;-64
2021/07/09 07:27:24;;;;;;;5.65;3.70;;;28.40;49.30;;;;;;5028431;28;20514;-64
2021/07/09 07:29:50;;;;;;;5.72;4.00;;;28.40;49.30;;;;;;5029778;28;20036;-64
2021/07/09 07:32:16;;;;;;;5.75;3.50;;;28.50;49.10;;;;;;5029156;28;20022;-63
2021/07/09 07:34:41;;;;;;;5.75;3.72;;;28.50;49.10;;;;;;5029788;28;20056;-64
2021/07/09 07:37:07;;;;;;;5.65;3.53;;;28.60;49.00;;;;;;5029737;28;20033;-63
2021/07/09 07:39:34;;;;;;;6.50;3.70;;;28.60;49.00;;;;;;5029584;28;20021;-63
2021/07/09 07:41:59;;;;;;;6.28;4.07;;;28.80;49.10;;;;;;5030649;28;20029;-63
2021/07/09 07:44:26;;;;;;;6.15;3.67;;;28.80;48.80;;;;;;5034116;28;20025;-64
2021/07/09 07:46:53;;;;;;;7.10;3.90;;;28.90;48.80;;;;;;5033853;28;20075;-64
2021/07/09 07:49:21;;;;;;;5.85;3.60;;;29.00;48.80;;;;;;5034157;28;20022;-64
2021/07/09 07:51:46;;;;;;;6.45;4.03;;;29.10;48.70;;;;;;5032783;28;20044;-63
2021/07/09 07:54:12;;;;;;;5.95;3.88;;;29.30;48.40;;;;;;5033808;28;20373;-63
2021/07/09 07:56:38;;;;;;;6.32;3.65;;;29.40;48.10;;;;;;5033950;28;20026;-63
2021/07/09 07:59:03;;;;;;;6.38;3.30;;;29.50;48.20;;;;;;5033349;28;20084;-63
2021/07/09 08:01:30;;;;;;;7.13;4.18;;;29.60;48.10;;;;;;5034243;28;20840;-63
2021/07/09 08:03:56;;;;;;;7.38;4.07;;;29.80;48.10;;;;;;5032336;28;20709;-65
2021/07/09 08:06:21;;;;;;;6.00;4.15;;;29.90;47.80;;;;;;5033647;28;20037;-63
2021/07/09 08:08:47;;;;;;;6.15;4.05;;;30.10;48.00;;;;;;5033008;28;20473;-64
2021/07/09 08:11:12;;;;;;;7.10;5.30;;;30.30;47.80;;;;;;5032901;28;20025;-63
2021/07/09 08:13:39;;;;;;;6.90;5.00;;;30.40;47.10;;;;;;5032910;28;20017;-64
2021/07/09 08:16:09;;;;;;;7.38;4.40;;;30.50;47.20;;;;;;5032666;28;20029;-64
2021/07/09 08:18:34;;;;;;;5.88;3.88;;;30.50;47.40;;;;;;5031954;28;20017;-64
2021/07/09 08:21:00;;;;;;;5.40;3.60;;;30.60;47.80;;;;;;5031431;28;20486;-64
2021/07/09 08:23:26;;;;;;;5.20;3.38;;;30.90;48.30;;;;;;5031544;28;20032;-64
2021/07/09 08:25:52;;;;;;;5.70;3.72;;;31.20;48.30;;;;;;5032048;28;20368;-64
2021/07/09 08:28:19;;;;;;;5.32;3.70;;;31.50;47.80;;;;;;5032115;28;20029;-63
2021/07/09 08:30:46;;;;;;;5.95;4.20;;;31.90;47.50;;;;;;5031306;28;20091;-63
2021/07/09 08:33:11;;;;;;;5.70;4.15;;;32.30;46.80;;;;;;5032332;28;20022;-63
2021/07/09 08:35:38;;;;;;;6.30;3.83;;;32.60;45.90;;;;;;5032381;28;20350;-63
2021/07/09 08:38:03;;;;;;;5.97;3.88;;;32.90;45.80;;;;;;5030701;28;20018;-63
2021/07/09 08:40:29;;;;;;;4.97;3.38;;;33.20;45.20;;;;;;5032334;28;20538;-64
2021/07/09 08:42:54;;;;;;;5.40;3.45;;;33.50;45.30;;;;;;5032781;28;20079;-64
2021/07/09 08:45:20;;;;;;;6.60;3.50;;;33.80;45.00;;;;;;5032207;28;20096;-66
2021/07/09 08:47:46;;;;;;;4.75;3.20;;;34.10;44.40;;;;;;5031925;28;20017;-65
2021/07/09 08:50:12;;;;;;;4.65;3.15;;;34.40;44.40;;;;;;5031450;28;20029;-65
2021/07/09 08:52:39;;;;;;;4.80;2.95;;;34.80;43.60;;;;;;5031723;28;20788;-64
2021/07/09 08:55:05;;;;;;;5.05;3.15;;;35.20;43.20;;;;;;5031790;28;20018;-63
2021/07/09 08:57:31;;;;;;;6.88;3.50;;;35.40;42.50;;;;;;5031202;28;20063;-63
2021/07/09 08:59:56;;;;;;;4.93;3.17;;;35.80;42.40;;;;;;5032276;28;20061;-65
2021/07/09 09:02:26;;;;;;;6.03;3.10;;;36.00;41.90;;;;;;5031590;28;20036;-64
2021/07/09 09:04:52;;;;;;;4.53;2.92;;;36.30;41.60;;;;;;5031646;28;20087;-63
2021/07/09 09:07:18;;;;;;;4.55;2.95;;;36.40;41.40;;;;;;5030452;28;20556;-64
2021/07/09 09:09:44;;;;;;;5.40;3.38;;;36.70;41.00;;;;;;5031817;28;20121;-64
2021/07/09 09:12:09;;;;;;;5.03;3.15;;;36.90;40.50;;;;;;5030199;28;20025;-64
2021/07/09 09:14:40;;;;;;;4.75;3.13;;;37.10;40.30;;;;;;5031444;28;20070;-65
2021/07/09 09:17:30;;;;;;;;;;;37.30;40.30;;;;;;5031007;28;20036;-64
2021/07/09 09:20:17;;;;;;;4.65;3.05;;;37.40;38.40;;;;;;5030528;28;19905;-64
2021/07/09 09:22:49;;;;;;;4.70;2.85;;;37.50;38.80;;;;;;5031347;28;20084;-64
2021/07/09 09:25:21;;;;;;;5.18;3.05;;;37.80;39.20;;;;;;5031165;28;20100;-64
2021/07/09 09:28:07;;;;;;;6.03;3.15;;;38.10;38.80;;;;;;5031568;28;20044;-63
2021/07/09 09:30:33;;;;;;;5.47;3.70;;;38.50;37.60;;;;;;5030137;28;20156;-65
2021/07/09 09:33:03;;;;;;;5.80;3.30;;;38.70;36.20;;;;;;5013749;28;20485;-63
2021/07/09 09:35:30;;;;;;;;;;;38.70;36.70;;;;;;5031625;28;20362;-63
2021/07/09 09:37:57;;;;;;;5.55;3.10;;;38.70;34.50;;;;;;5031145;28;20308;-64
2021/07/09 09:40:24;;;;;;;5.75;3.55;;;38.80;37.30;;;;;;5029979;28;20025;-63
2021/07/09 09:42:50;;;;;;;5.15;3.17;;;39.20;36.90;;;;;;5031875;28;20425;-63
2021/07/09 09:45:24;;;;;;;4.28;2.95;;;39.50;36.60;;;;;;5030524;28;20064;-64
2021/07/09 09:47:50;;;;;;;4.75;3.20;;;39.70;35.20;;;;;;5030500;28;20032;-64
2021/07/09 09:50:20;;;;;;;5.00;2.72;;;39.80;36.10;;;;;;5029662;28;20022;-64
2021/07/09 09:52:51;;;;;;;5.55;2.90;;;40.00;36.10;;;;;;5030579;28;20388;-64
2021/07/09 09:55:23;;;;;;;4.85;3.40;;;40.20;35.80;;;;;;5030538;28;20022;-64
2021/07/09 09:58:13;;;;;;;5.72;3.17;;;40.40;35.00;;;;;;5029092;28;20025;-63
2021/07/09 10:00:40;;;;;;;5.22;3.10;;;40.60;33.60;;;;;;5030344;28;20123;-64
2021/07/09 10:03:06;;;;;;;4.88;3.05;;;40.70;34.60;;;;;;5030951;28;20025;-64
2021/07/09 10:05:34;;;;;;;4.68;3.10;;;40.70;34.30;;;;;;5028573;28;20049;-65
2021/07/09 10:07:59;;;;;;;5.93;3.05;;;40.80;34.10;;;;;;5029193;28;20037;-64
2021/07/09 10:10:25;;;;;;;4.63;2.90;;;41.00;33.90;;;;;;5030415;28;20032;-64
2021/07/09 10:12:51;;;;;;;4.38;2.83;;;41.20;33.90;;;;;;5030142;28;20025;-64
2021/07/09 10:15:17;;;;;;;5.07;2.70;;;41.30;34.60;;;;;;5029318;28;20371;-64
2021/07/09 10:17:45;;;;;;;4.40;2.95;;;41.50;33.70;;;;;;5029151;28;20109;-63
2021/07/09 10:20:11;;;;;;;4.93;3.05;;;41.60;33.60;;;;;;5029415;28;20037;-64
2021/07/09 10:22:37;;;;;;;5.82;3.25;;;41.80;33.00;;;;;;5029356;28;20033;-63
2021/07/09 10:25:03;;;;;;;4.60;3.15;;;41.90;32.70;;;;;;5029819;28;20033;-64
2021/07/09 10:27:28;;;;;;;5.05;3.10;;;42.10;32.70;;;;;;5030110;28;20083;-64
2021/07/09 10:29:54;;;;;;;5.38;3.20;;;42.20;32.50;;;;;;5030363;28;20026;-64
2021/07/09 10:32:40;;;;;;;6.28;3.30;;;42.30;32.20;;;;;;5031348;28;20076;-63
2021/07/09 10:35:07;;;;;;;4.90;3.25;;;42.50;30.70;;;;;;5030152;28;20402;-64
2021/07/09 10:37:33;;;;;;;5.18;3.22;;;42.50;31.60;;;;;;5031216;28;20029;-64
2021/07/09 10:40:12;;;;;;;4.60;3.00;;;42.60;31.50;;;;;;5028962;28;20029;-64
2021/07/09 10:42:41;;;;;;;6.10;3.10;;;42.80;31.20;;;;;;5028929;28;20060;-64
2021/07/09 10:45:08;;;;;;;5.10;3.20;;;43.00;31.10;;;;;;5030045;28;20477;-64
2021/07/09 10:47:44;;;;;;;5.35;3.38;;;43.00;31.10;;;;;;5029058;28;20029;-64
2021/07/09 10:50:36;;;;;;;5.22;3.20;;;43.30;30.60;;;;;;5030446;28;20075;-64
2021/07/09 10:53:09;;;;;;;4.78;3.20;;;43.50;29.70;;;;;;5025498;28;20045;-63
2021/07/09 10:55:48;;;;;;;5.35;2.97;;;43.50;30.20;;;;;;5028577;28;20443;-64
2021/07/09 10:58:19;;;;;;;4.72;3.15;;;43.60;30.80;;;;;;5030934;28;20030;-63
2021/07/09 11:01:16;;;;;;;4.82;3.10;;;43.70;30.70;;;;;;5030156;28;20035;-64
2021/07/09 11:03:56;;;;;;;4.95;3.05;;;43.90;30.00;;;;;;5028609;28;20419;-63
2021/07/09 11:06:35;;;;;;;5.03;3.38;;;43.90;30.00;;;;;;5029927;28;20087;-66
2021/07/09 11:09:03;;;;;;;5.65;3.08;;;43.90;29.30;;;;;;5029524;28;20095;-64
2021/07/09 11:11:31;;;;;;;4.90;3.70;;;44.00;30.30;;;;;;5029471;28;20017;-65
2021/07/09 11:14:05;;;;;;;5.15;3.47;;;44.20;30.00;;;;;;5030844;28;20432;-65
2021/07/09 11:16:31;;;;;;;4.45;2.90;;;44.30;29.40;;;;;;5032290;28;20014;-64
2021/07/09 11:19:03;;;;;;;4.50;2.90;;;44.10;29.90;;;;;;5032852;28;20026;-64
2021/07/09 11:21:34;;;;;;;5.15;3.25;;;44.30;30.00;;;;;;5034021;28;20071;-64
2021/07/09 11:24:10;;;;;;;5.03;3.22;;;44.40;30.00;;;;;;5033884;28;20025;-65
2021/07/09 11:26:42;;;;;;;5.00;3.03;;;44.50;29.80;;;;;;5034169;28;20021;-67
2021/07/09 11:29:29;;;;;;;4.60;2.95;;;44.60;29.80;;;;;;5034002;28;20017;-63
2021/07/09 11:31:59;;;;;;;4.95;3.17;;;44.80;29.60;;;;;;5034598;28;20068;-63
2021/07/09 11:34:25;;;;;;;;;;;44.90;29.80;;;;;;5034054;28;20349;-64
2021/07/09 11:36:57;;;;;;;4.20;2.80;;;44.80;29.00;;;;;;5034518;28;20268;-63
2021/07/09 11:39:28;;;;;;;4.40;2.80;;;44.90;29.70;;;;;;5032249;28;20025;-63
2021/07/09 11:42:07;;;;;;;4.25;2.83;;;45.00;29.80;;;;;;5032929;28;20461;-65
2021/07/09 11:44:41;;;;;;;6.15;3.53;;;45.10;29.60;;;;;;5032471;28;20025;-64
2021/07/09 11:47:13;;;;;;;7.20;2.90;;;45.30;29.50;;;;;;5031983;28;20033;-63
2021/07/09 11:49:46;;;;;;;5.05;3.10;;;45.50;29.60;;;;;;5033970;28;20018;-63
2021/07/09 11:52:12;;;;;;;5.25;3.10;;;45.50;29.50;;;;;;5033861;28;20075;-65
2021/07/09 11:54:41;;;;;;;5.30;3.42;;;45.70;29.50;;;;;;5033805;28;20519;-63
2021/07/09 11:57:28;;;;;;;5.32;3.25;;;45.80;29.30;;;;;;5032275;28;20546;-65
2021/07/09 11:59:55;;;;;;;4.55;3.10;;;45.70;29.10;;;;;;5033500;28;20116;-65
2021/07/09 12:02:25;;;;;;;5.65;2.88;;;45.80;29.40;;;;;;5032134;28;20033;-67
2021/07/09 12:04:52;;;;;;;4.97;3.35;;;46.00;29.30;;;;;;5031721;28;20488;-63
2021/07/09 12:07:19;;;;;;;4.72;2.90;;;46.10;29.40;;;;;;5032686;28;20034;-64
2021/07/09 12:09:53;;;;;;;5.05;3.00;;;46.10;29.20;;;;;;5032889;28;20511;-64
2021/07/09 12:12:18;;;;;;;5.13;2.90;;;46.30;29.20;;;;;;5033203;28;20033;-63
2021/07/09 12:15:00;;;;;;;4.60;2.90;;;46.50;29.20;;;;;;5033079;28;20029;-64
2021/07/09 12:17:32;;;;;;;5.22;2.80;;;46.70;28.90;;;;;;5033048;28;20483;-65
2021/07/09 12:20:03;;;;;;;4.30;2.78;;;46.80;29.00;;;;;;5031494;28;20029;-63
2021/07/09 12:22:31;;;;;;;4.43;2.85;;;46.70;28.80;;;;;;5032578;28;20064;-64
2021/07/09 12:24:57;;;;;;;4.45;2.83;;;46.80;28.70;;;;;;5032948;28;20030;-64
2021/07/09 12:27:22;;;;;;;3.65;2.40;;;46.90;28.80;;;;;;5032074;28;20041;-65
2021/07/09 12:29:48;;;;;;;4.07;2.60;;;47.00;28.90;;;;;;5031380;28;20084;-65
2021/07/09 12:32:14;;;;;;;4.18;2.60;;;47.20;28.70;;;;;;5032883;28;20040;-63
2021/07/09 12:34:40;;;;;;;4.65;2.70;;;47.40;28.80;;;;;;5032583;28;20018;-65
2021/07/09 12:37:07;;;;;;;5.25;3.00;;;47.60;28.60;;;;;;5033131;28;20032;-64
2021/07/09 12:39:32;;;;;;;5.45;2.75;;;47.80;28.50;;;;;;5032534;28;20053;-64
2021/07/09 12:42:12;;;;;;;4.70;2.70;;;47.80;28.50;;;;;;5031415;28;20080;-65
2021/07/09 12:44:51;;;;;;;5.05;2.55;;;47.90;28.20;;;;;;5031595;28;20017;-65
2021/07/09 12:47:17;;;;;;;4.57;2.58;;;47.90;28.10;;;;;;5032122;28;20017;-64
2021/07/09 12:49:43;;;;;;;5.68;2.90;;;47.90;28.50;;;;;;5032398;28;20029;-63